PIMOHWEATHER Station Historical Data
 
Daily Summary for August 07, 2020 Units:  Metric    English   Both
Daily Weekly Monthly Yearly
  Current: High: Low: Average:
Temperature: 29.1 °C 29.1 °C 25.1 °C 26 °C
Dew Point: 24.3 °C 24.3 °C 23.6 °C 24 °C
Humidity: 76% 93% 76% 89%
Wind Speed: 9km/h 15km/h 0km/h 7km/h
Wind Gust: 12km/h 20km/h - -
WindNW - - ENE
Pressure: 1012.0 hPa 1013.0 hPa 1010.3 hPa -
Precipitation: 0.30 mm      
 
 
Tabular Data for August 07, 2020
Time Temperature Dew Point Pressure Wind Wind Speed Wind Gust Humidity Rainfall Rate (Hourly) solar
00:04 25.9 °C 24.1 °C 1013.0 hPa NW 1 km/h 4 km/h 90% 0.00 mm 0.00 W/m2
00:09 25.9 °C 24.1 °C 1012.9 hPa Calm     90% 0.00 mm 0.00 W/m2
00:14 26.2 °C 24.2 °C 1012.8 hPa Calm     89% 0.00 mm 0.00 W/m2
00:19 26.2 °C 24.2 °C 1012.7 hPa NW 4 km/h 4 km/h 89% 0.00 mm 0.00 W/m2
00:24 25.9 °C 23.9 °C 1012.6 hPa NW 4 km/h 4 km/h 89% 0.00 mm 0.00 W/m2
00:29 25.9 °C 24.1 °C 1012.6 hPa NW 6 km/h 8 km/h 90% 0.00 mm 0.00 W/m2
00:34 25.8 °C 24.0 °C 1012.5 hPa NW 6 km/h 8 km/h 90% 0.00 mm 0.00 W/m2
00:35 25.7 °C 23.9 °C 1012.2 hPa NW 2 km/h 4 km/h 90% 0.00 mm 0.00 W/m2
00:44 25.9 °C 24.1 °C 1012.2 hPa Calm     90% 0.00 mm 0.00 W/m2
00:49 26.0 °C 24.2 °C 1012.3 hPa NW 3 km/h 4 km/h 90% 0.00 mm 0.00 W/m2
00:54 26.1 °C 24.1 °C 1012.3 hPa Calm   4 km/h 89% 0.00 mm 0.00 W/m2
00:59 26.1 °C 24.1 °C 1012.3 hPa NNE 7 km/h 8 km/h 89% 0.00 mm 0.00 W/m2
01:04 25.9 °C 24.0 °C 1012.2 hPa NNE 6 km/h 8 km/h 90% 0.00 mm 0.00 W/m2
01:09 25.8 °C 24.0 °C 1012.1 hPa NNE 7 km/h 8 km/h 90% 0.00 mm 0.00 W/m2
01:14 25.7 °C 24.1 °C 1012.0 hPa NNE 5 km/h 8 km/h 91% 0.00 mm 0.00 W/m2
01:19 25.7 °C 24.1 °C 1012.0 hPa North 10 km/h 12 km/h 91% 0.00 mm 0.00 W/m2
01:24 25.7 °C 23.9 °C 1012.0 hPa North 6 km/h 8 km/h 90% 0.00 mm 0.00 W/m2
01:29 25.7 °C 23.9 °C 1012.0 hPa NNE 7 km/h 8 km/h 90% 0.00 mm 0.00 W/m2
01:34 25.8 °C 24.0 °C 1012.0 hPa NNE 8 km/h 8 km/h 90% 0.00 mm 0.00 W/m2
01:39 25.8 °C 24.0 °C 1012.0 hPa NE 11 km/h 12 km/h 90% 0.00 mm 0.00 W/m2
01:44 25.8 °C 24.0 °C 1012.0 hPa NE 6 km/h 8 km/h 90% 0.00 mm 0.00 W/m2
01:49 25.8 °C 24.1 °C 1011.9 hPa NE 9 km/h 12 km/h 91% 0.00 mm 0.00 W/m2
01:54 25.6 °C 24.0 °C 1011.7 hPa NE 9 km/h 12 km/h 91% 0.00 mm 0.00 W/m2
01:59 25.6 °C 24.0 °C 1011.7 hPa NNE 9 km/h 12 km/h 91% 0.00 mm 0.00 W/m2
02:04 25.6 °C 24.0 °C 1011.6 hPa NNE 11 km/h 12 km/h 91% 0.00 mm 0.00 W/m2
02:09 25.5 °C 24.2 °C 1011.5 hPa NNE 8 km/h 12 km/h 92% 0.00 mm 0.00 W/m2
02:14 25.6 °C 24.0 °C 1011.5 hPa NNE 12 km/h 12 km/h 91% 0.00 mm 0.00 W/m2
02:18 25.5 °C 24.2 °C 1011.3 hPa NNE 11 km/h 12 km/h 92% 0.00 mm 0.00 W/m2
02:29 25.4 °C 24.1 °C 1011.3 hPa NNE 9 km/h 12 km/h 92% 0.00 mm 0.00 W/m2
02:34 25.4 °C 24.1 °C 1011.1 hPa NNE 8 km/h 8 km/h 93% 0.00 mm 0.00 W/m2
02:39 25.4 °C 24.2 °C 1011.1 hPa NNE 8 km/h 8 km/h 93% 0.00 mm 0.00 W/m2
02:44 25.4 °C 24.2 °C 1011.1 hPa NE 5 km/h 8 km/h 93% 0.00 mm 0.00 W/m2
02:49 25.4 °C 24.2 °C 1011.0 hPa NE 4 km/h 4 km/h 93% 1.80 mm 0.00 W/m2
02:54 25.4 °C 24.2 °C 1011.0 hPa NE 2 km/h 4 km/h 93% 1.80 mm 0.00 W/m2
02:59 25.4 °C 24.2 °C 1011.0 hPa Calm   4 km/h 93% 1.80 mm 0.00 W/m2
03:04 25.4 °C 24.1 °C 1011.0 hPa Calm     92% 0.00 mm 0.00 W/m2
03:09 25.4 °C 24.2 °C 1011.0 hPa NE 4 km/h 4 km/h 93% 0.00 mm 0.00 W/m2
03:14 25.5 °C 24.2 °C 1011.0 hPa NE 5 km/h 8 km/h 92% 0.00 mm 0.00 W/m2
03:19 25.5 °C 24.2 °C 1010.9 hPa NNE 8 km/h 8 km/h 92% 0.00 mm 0.00 W/m2
03:24 25.4 °C 24.2 °C 1010.9 hPa NNE 8 km/h 8 km/h 93% 0.00 mm 0.00 W/m2
03:29 25.3 °C 24.1 °C 1010.9 hPa NNE 8 km/h 8 km/h 93% 0.00 mm 0.00 W/m2
03:34 25.3 °C 24.1 °C 1010.7 hPa NNE 8 km/h 8 km/h 93% 0.00 mm 0.00 W/m2
03:39 25.3 °C 24.1 °C 1010.7 hPa NNE 8 km/h 8 km/h 93% 0.00 mm 0.00 W/m2
03:44 25.3 °C 24.1 °C 1010.8 hPa NNE 4 km/h 4 km/h 93% 0.00 mm 0.00 W/m2
03:49 25.4 °C 24.1 °C 1010.8 hPa NNE 4 km/h 4 km/h 93% 0.00 mm 0.00 W/m2
03:54 25.4 °C 24.1 °C 1010.8 hPa NNE 10 km/h 12 km/h 92% 0.00 mm 0.00 W/m2
03:59 25.4 °C 23.9 °C 1010.8 hPa NNE 10 km/h 12 km/h 91% 0.00 mm 0.00 W/m2
04:02 25.5 °C 24.0 °C 1010.6 hPa NNE 8 km/h 8 km/h 91% 0.00 mm 0.00 W/m2
04:14 25.4 °C 23.9 °C 1010.7 hPa North 6 km/h 8 km/h 91% 0.00 mm 0.00 W/m2
04:19 25.4 °C 23.9 °C 1010.4 hPa North 8 km/h 8 km/h 91% 0.00 mm 0.00 W/m2
04:24 25.4 °C 23.9 °C 1010.4 hPa NNE 9 km/h 12 km/h 91% 0.00 mm 0.00 W/m2
04:29 25.4 °C 23.9 °C 1010.6 hPa North 11 km/h 12 km/h 91% 0.00 mm 0.00 W/m2
04:34 25.4 °C 23.9 °C 1010.3 hPa North 9 km/h 12 km/h 91% 0.00 mm 0.00 W/m2
04:39 25.4 °C 23.9 °C 1010.6 hPa NNE 6 km/h 8 km/h 91% 0.00 mm 0.00 W/m2
04:44 25.4 °C 23.9 °C 1010.7 hPa North 11 km/h 12 km/h 91% 0.00 mm 0.00 W/m2
04:49 25.4 °C 23.9 °C 1010.7 hPa NNE 13 km/h 16 km/h 91% 0.00 mm 0.00 W/m2
04:54 25.4 °C 23.9 °C 1010.8 hPa North 14 km/h 16 km/h 91% 0.00 mm 0.00 W/m2
04:59 25.4 °C 23.8 °C 1010.9 hPa North 15 km/h 20 km/h 91% 0.00 mm 0.00 W/m2
05:04 25.4 °C 23.9 °C 1011.0 hPa NNE 14 km/h 20 km/h 91% 0.00 mm 0.00 W/m2
05:09 25.3 °C 24.0 °C 1010.9 hPa North 12 km/h 16 km/h 92% 0.00 mm 0.00 W/m2
05:14 25.2 °C 23.9 °C 1011.2 hPa North 14 km/h 16 km/h 92% 0.00 mm 0.00 W/m2
05:19 25.1 °C 23.9 °C 1011.0 hPa North 11 km/h 12 km/h 93% 0.00 mm 0.00 W/m2
05:24 25.1 °C 23.9 °C 1011.1 hPa North 8 km/h 8 km/h 93% 0.00 mm 0.00 W/m2
05:29 25.1 °C 23.9 °C 1011.0 hPa North 6 km/h 8 km/h 93% 0.00 mm 0.00 W/m2
05:34 25.2 °C 23.9 °C 1011.0 hPa North 5 km/h 8 km/h 92% 0.00 mm 0.00 W/m2
05:39 25.3 °C 24.0 °C 1011.2 hPa NNE 6 km/h 8 km/h 92% 0.00 mm 0.40 W/m2
05:44 25.3 °C 24.0 °C 1011.3 hPa NNE 6 km/h 12 km/h 92% 0.00 mm 2.60 W/m2
05:46 25.3 °C 23.8 °C 1011.2 hPa Calm     91% 0.00 mm 2.90 W/m2
05:54 25.6 °C 23.6 °C 1011.1 hPa NE 2 km/h 4 km/h 89% 0.00 mm 9.10 W/m2
05:59 25.6 °C 23.8 °C 1011.4 hPa Calm   4 km/h 90% 0.00 mm 12.10 W/m2
06:04 25.7 °C 23.9 °C 1011.4 hPa NE 3 km/h 4 km/h 90% 0.00 mm 16.00 W/m2
06:09 25.6 °C 23.8 °C 1011.4 hPa NNE 8 km/h 12 km/h 90% 0.00 mm 20.30 W/m2
06:14 25.5 °C 23.7 °C 1011.4 hPa NNE 8 km/h 12 km/h 90% 0.00 mm 25.10 W/m2
06:19 25.6 °C 23.8 °C 1011.5 hPa NE 8 km/h 8 km/h 90% 0.00 mm 29.00 W/m2
06:24 25.6 °C 23.8 °C 1011.5 hPa NE 11 km/h 12 km/h 90% 0.00 mm 32.40 W/m2
06:29 25.5 °C 23.7 °C 1011.7 hPa NNE 9 km/h 12 km/h 90% 0.00 mm 38.50 W/m2
06:34 25.6 °C 23.8 °C 1011.6 hPa NE 4 km/h 8 km/h 90% 0.00 mm 45.90 W/m2
06:39 25.9 °C 23.9 °C 1011.6 hPa NE 3 km/h 4 km/h 90% 0.00 mm 65.90 W/m2
06:44 26.1 °C 23.9 °C 1011.5 hPa NE 2 km/h 4 km/h 89% 0.00 mm 70.70 W/m2
06:49 26.5 °C 24.0 °C 1011.6 hPa ENE 4 km/h 4 km/h 87% 0.00 mm 97.10 W/m2
06:54 26.7 °C 24.2 °C 1011.7 hPa Calm     86% 0.00 mm 106.70 W/m2
06:59 27.3 °C 24.1 °C 1011.6 hPa Calm   4 km/h 85% 0.00 mm 150.50 W/m2
07:04 27.4 °C 24.3 °C 1011.7 hPa ENE 4 km/h 4 km/h 83% 0.00 mm 162.60 W/m2
07:09 27.8 °C 24.0 °C 1011.6 hPa ENE 4 km/h 8 km/h 82% 0.00 mm 177.80 W/m2
07:14 28.0 °C 24.3 °C 1011.7 hPa ENE 6 km/h 8 km/h 81% 0.00 mm 202.10 W/m2
07:19 28.0 °C 24.3 °C 1011.8 hPa NE 10 km/h 12 km/h 80% 0.00 mm 217.30 W/m2
07:24 27.8 °C 24.1 °C 1011.9 hPa North 11 km/h 12 km/h 80% 0.00 mm 222.50 W/m2
07:29 27.7 °C 24.0 °C 1011.9 hPa NNE 11 km/h 12 km/h 80% 0.00 mm 259.80 W/m2
07:34 28.0 °C 23.9 °C 1011.8 hPa NNE 11 km/h 12 km/h 80% 0.00 mm 280.60 W/m2
07:39 28.1 °C 24.1 °C 1011.7 hPa NNE 13 km/h 16 km/h 79% 0.00 mm 309.30 W/m2
07:44 28.0 °C 23.9 °C 1011.8 hPa NNE 10 km/h 12 km/h 79% 0.00 mm 336.50 W/m2
07:49 28.1 °C 24.2 °C 1011.8 hPa NNE 11 km/h 16 km/h 79% 0.00 mm 350.50 W/m2
07:54 28.3 °C 24.0 °C 1011.8 hPa NE 8 km/h 8 km/h 79% 0.00 mm 406.40 W/m2
07:59 28.9 °C 24.3 °C 1011.8 hPa ESE 13 km/h 16 km/h 76% 0.00 mm 421.60 W/m2
08:04 28.9 °C 24.3 °C 1012.1 hPa NNW 14 km/h 16 km/h 76% 0.00 mm 467.20 W/m2
08:09 29.1 °C 24.3 °C 1012.0 hPa NW 9 km/h 12 km/h 76% 0.00 mm 514.10 W/m2
PIMOHWEATHER Philippines
Compliments of Weather Underground - 2 mb